Time;durP1;ratioP1;P1;durP2;ratioP2;P2;SDS_P1;SDS_P2;PMS_P1;PMS_P2;Temp;Humidity;BMP_temperature;BMP_pressure;BME280_temperature;BME280_humidity;BME280_pressure;Samples;Min_cycle;Max_cycle;Signal;HPM_P1;HPM_P2
2022/01/23 00:00:35;;;;;;;15.10;9.23;;;12.50;72.20;;;;;;5085588;29;20060;-30
2022/01/23 00:03:19;;;;;;;20.93;12.00;;;12.50;72.00;;;;;;5085687;29;20098;-31
2022/01/23 00:05:51;;;;;;;;;;;12.50;72.00;;;;;;5085676;29;20052;-30
2022/01/23 00:08:24;;;;;;;20.80;11.63;;;12.50;71.90;;;;;;5085472;29;20436;-32
2022/01/23 00:10:56;;;;;;;16.55;8.57;;;12.60;71.90;;;;;;5070098;29;20057;-32
2022/01/23 00:13:33;;;;;;;15.53;8.47;;;12.50;71.80;;;;;;5085284;29;20055;-30
2022/01/23 00:18:53;;;;;;;21.63;9.67;;;12.50;71.60;;;;;;5093127;28;20416;-30
2022/01/23 00:21:24;;;;;;;16.53;8.40;;;12.60;71.70;;;;;;5144722;28;20046;-31
2022/01/23 00:32:06;;;;;;;13.57;8.57;;;12.50;71.20;;;;;;5249247;28;20086;-30
2022/01/23 00:34:36;;;;;;;20.83;10.67;;;12.50;71.20;;;;;;5248812;28;20041;-31
2022/01/23 00:37:07;;;;;;;15.10;9.40;;;12.50;71.10;;;;;;5248784;28;20071;-30
2022/01/23 00:39:38;;;;;;;14.50;8.87;;;12.50;71.30;;;;;;5248832;28;20072;-33
2022/01/23 00:42:09;;;;;;;18.07;11.17;;;12.50;71.10;;;;;;5248813;28;20045;-31
2022/01/23 00:44:41;;;;;;;17.50;10.07;;;12.50;71.00;;;;;;5248788;28;20055;-32
2022/01/23 00:47:13;;;;;;;12.37;8.50;;;12.50;71.10;;;;;;5248772;28;20128;-33
2022/01/23 00:49:43;;;;;;;16.27;10.17;;;12.50;71.00;;;;;;5248577;28;20056;-31
2022/01/23 00:52:17;;;;;;;18.73;10.63;;;12.50;71.00;;;;;;5249000;28;20045;-31
2022/01/23 00:54:50;;;;;;;17.60;11.40;;;12.50;70.90;;;;;;5248699;28;20497;-30
2022/01/23 00:57:21;;;;;;;16.08;9.10;;;12.50;71.00;;;;;;5248356;28;20053;-32
2022/01/23 00:59:52;;;;;;;20.93;11.30;;;12.50;70.90;;;;;;5247479;28;20045;-30
2022/01/23 01:02:23;;;;;;;19.60;11.77;;;12.50;71.50;;;;;;5247178;28;20064;-30
2022/01/23 01:04:54;;;;;;;25.10;13.43;;;12.50;70.90;;;;;;5248407;28;20072;-31
2022/01/23 01:07:25;;;;;;;26.10;14.90;;;12.50;70.80;;;;;;5248562;28;20036;-32
2022/01/23 01:10:00;;;;;;;37.27;20.33;;;12.50;70.60;;;;;;5248502;28;20057;-31
2022/01/23 01:12:40;;;;;;;20.03;11.97;;;12.50;70.70;;;;;;5248530;28;20482;-32
2022/01/23 01:31:51;;;;;;;12.60;7.50;;;12.40;70.80;;;;;;5248702;28;20518;-30
2022/01/23 01:37:12;;;;;;;16.70;11.57;;;12.50;70.70;;;;;;5248358;28;20041;-31
2022/01/23 01:39:43;;;;;;;14.13;10.33;;;12.50;70.70;;;;;;5248136;28;20461;-30
2022/01/23 01:42:14;;;;;;;17.23;11.80;;;12.40;70.80;;;;;;5248629;28;20045;-30
2022/01/23 01:44:45;;;;;;;17.57;12.03;;;12.40;70.60;;;;;;5248335;28;20441;-29
2022/01/23 01:47:16;;;;;;;14.50;10.53;;;12.40;70.60;;;;;;5248472;28;20048;-32
2022/01/23 01:49:47;;;;;;;13.33;8.90;;;12.40;70.50;;;;;;5248027;28;20525;-30
2022/01/23 01:52:18;;;;;;;13.07;7.80;;;12.40;70.70;;;;;;5248042;28;20132;-30
2022/01/23 01:54:58;;;;;;;12.13;7.83;;;12.40;70.70;;;;;;5247813;28;20045;-31
2022/01/23 01:57:38;;;;;;;12.50;7.77;;;12.40;70.50;;;;;;5248301;28;20375;-30
2022/01/23 02:03:06;;;;;;;12.33;7.60;;;12.40;70.50;;;;;;5246801;28;20045;-32
2022/01/23 02:08:29;;;;;;;10.00;6.70;;;12.40;70.50;;;;;;5248340;28;20055;-30
2022/01/23 02:11:07;;;;;;;13.70;9.23;;;12.40;70.60;;;;;;5251484;28;20049;-30
2022/01/23 02:13:54;;;;;;;16.83;10.70;;;12.50;70.50;;;;;;5250721;28;20049;-30
2022/01/23 02:57:38;;;;;;;14.60;8.30;;;12.50;72.80;;;;;;5251314;28;20063;-30
2022/01/23 03:00:16;;;;;;;16.03;9.73;;;12.40;72.70;;;;;;5250531;28;20044;-30
2022/01/23 03:02:50;;;;;;;14.97;9.10;;;12.40;72.60;;;;;;5249524;28;20079;-31
2022/01/23 03:05:36;;;;;;;18.50;10.13;;;12.50;72.60;;;;;;5250158;28;20052;-30
2022/01/23 03:08:26;;;;;;;17.60;10.37;;;12.50;72.50;;;;;;5250592;28;20512;-30
2022/01/23 03:11:02;;;;;;;16.33;9.77;;;12.50;72.50;;;;;;5250464;28;20129;-30
2022/01/23 03:13:49;;;;;;;16.23;9.80;;;12.50;72.40;;;;;;5250232;28;20076;-29
2022/01/23 03:25:11;;;;;;;15.90;10.03;;;12.50;72.20;;;;;;5250478;28;20044;-29
2022/01/23 03:30:40;;;;;;;16.17;9.80;;;12.50;72.00;;;;;;5248015;28;20083;-31
2022/01/23 03:33:11;;;;;;;16.50;10.17;;;12.40;72.00;;;;;;5231255;28;20110;-31
2022/01/23 03:35:42;;;;;;;15.17;9.80;;;12.40;71.90;;;;;;5247656;28;20061;-30
2022/01/23 03:38:13;;;;;;;14.87;9.53;;;12.50;71.90;;;;;;5247665;28;20049;-30
2022/01/23 03:40:44;;;;;;;15.50;9.07;;;12.50;72.00;;;;;;5247617;28;20107;-29
2022/01/23 03:43:21;;;;;;;14.40;9.57;;;12.50;72.00;;;;;;5247501;28;20490;-32
2022/01/23 03:51:16;;;;;;;15.47;9.37;;;12.50;72.00;;;;;;5247472;28;20140;-30
2022/01/23 03:53:47;;;;;;;15.17;9.53;;;12.50;72.00;;;;;;5247150;28;20056;-32
2022/01/23 03:56:21;;;;;;;14.63;9.17;;;12.50;72.10;;;;;;5247239;28;20448;-30
2022/01/23 03:58:52;;;;;;;13.60;8.87;;;12.50;72.00;;;;;;5247368;28;20044;-31
2022/01/23 04:01:24;;;;;;;15.80;9.60;;;12.50;72.10;;;;;;5247078;28;20063;-30
2022/01/23 04:04:00;;;;;;;13.67;9.07;;;12.50;72.20;;;;;;5230763;28;20045;-30
2022/01/23 04:06:32;;;;;;;15.43;9.37;;;12.50;72.00;;;;;;5230813;28;20162;-30
2022/01/23 04:09:03;;;;;;;14.87;9.27;;;12.50;71.90;;;;;;5249401;28;20412;-33
2022/01/23 04:11:34;;;;;;;15.13;8.53;;;12.50;71.90;;;;;;5249214;28;20040;-31
2022/01/23 04:14:08;;;;;;;13.50;8.57;;;12.50;71.90;;;;;;5248982;28;20504;-30
2022/01/23 04:19:36;;;;;;;14.47;8.97;;;12.50;71.60;;;;;;5249340;28;20478;-31
2022/01/23 04:33:41;;;;;;;13.03;9.07;;;12.50;71.80;;;;;;5248594;28;20048;-30
2022/01/23 05:04:45;;;;;;;20.77;14.20;;;12.50;72.00;;;;;;5185185;28;20100;-30
2022/01/23 05:07:17;;;;;;;22.40;17.95;;;12.50;71.90;;;;;;5168250;28;20442;-31
2022/01/23 05:09:49;;;;;;;23.30;17.40;;;12.50;72.00;;;;;;5184598;28;20045;-33
2022/01/23 05:12:25;;;;;;;45.70;37.07;;;12.50;71.90;;;;;;5184408;28;20080;-30
2022/01/23 05:14:56;;;;;;;46.97;33.03;;;12.50;71.90;;;;;;5168863;28;20137;-31
2022/01/23 05:17:27;;;;;;;73.67;49.80;;;12.50;71.80;;;;;;5185035;28;20136;-31
2022/01/23 05:19:58;;;;;;;27.23;18.93;;;12.50;72.00;;;;;;5168048;28;20050;-31
2022/01/23 05:25:10;;;;;;;17.07;12.43;;;12.50;71.90;;;;;;5165230;28;20464;-30
2022/01/23 05:27:41;;;;;;;19.90;13.63;;;12.50;72.00;;;;;;5181875;28;20052;-32
2022/01/23 05:30:12;;;;;;;32.77;23.03;;;12.50;72.00;;;;;;5143176;28;20553;-39
2022/01/23 05:32:43;;;;;;;31.43;23.27;;;12.50;72.50;;;;;;5157416;28;20061;-33
2022/01/23 05:35:17;;;;;;;36.20;26.77;;;12.50;72.50;;;;;;5202732;28;20119;-34
2022/01/23 05:37:48;;;;;;;23.27;17.40;;;12.50;72.60;;;;;;5204585;28;20491;-30
2022/01/23 05:40:21;;;;;;;17.30;13.73;;;12.40;72.40;;;;;;5203394;28;20049;-37
2022/01/23 05:42:52;;;;;;;16.42;10.85;;;12.50;72.60;;;;;;5205230;28;20104;-34
2022/01/23 05:45:23;;;;;;;13.37;10.03;;;12.40;72.50;;;;;;5209058;28;20069;-30
2022/01/23 05:47:54;;;;;;;14.77;10.77;;;12.40;72.00;;;;;;5210574;28;20080;-30
2022/01/23 05:50:25;;;;;;;14.20;10.97;;;10.50;75.30;;;;;;5210302;28;20053;-29
2022/01/23 05:52:56;;;;;;;12.97;10.07;;;9.40;78.40;;;;;;5210350;28;20045;-29
2022/01/23 05:55:27;;;;;;;13.43;9.93;;;8.80;79.90;;;;;;5209213;28;20509;-30
2022/01/23 05:57:58;;;;;;;14.50;11.40;;;8.50;80.20;;;;;;5210343;28;20045;-29
2022/01/23 06:00:29;;;;;;;;;;;8.40;81.00;;;;;;5210712;28;20129;-29
2022/01/23 06:02:59;;;;;;;;;;;8.30;81.20;;;;;;5209279;28;20330;-29
2022/01/23 06:05:31;;;;;;;;;;;8.20;82.00;;;;;;5210646;28;19920;-32
2022/01/23 06:08:01;;;;;;;;;;;8.10;82.70;;;;;;5210327;28;19921;-29
2022/01/23 06:10:46;;;;;;;;;;;8.10;82.20;;;;;;5210214;28;19927;-33
2022/01/23 06:13:17;;;;;;;;;;;8.10;82.60;;;;;;5209173;28;19927;-29
2022/01/23 06:15:48;;;;;;;;;;;8.10;83.10;;;;;;5209887;28;19921;-30
2022/01/23 06:18:19;;;;;;;;;;;8.10;82.70;;;;;;5209864;28;19921;-31
2022/01/23 06:20:50;;;;;;;;;;;8.00;83.00;;;;;;5209748;28;19925;-30
2022/01/23 06:23:21;;;;;;;;;;;8.00;82.60;;;;;;5209848;28;20294;-31
2022/01/23 06:25:52;;;;;;;12.83;8.60;;;8.00;83.00;;;;;;5209441;28;19921;-30
2022/01/23 06:28:38;;;;;;;13.70;9.93;;;7.90;83.10;;;;;;5208702;28;20061;-29
2022/01/23 06:31:10;;;;;;;14.43;9.13;;;7.90;83.60;;;;;;5193436;28;20041;-31
2022/01/23 06:33:41;;;;;;;14.57;9.30;;;7.80;83.60;;;;;;5209015;28;20087;-30
2022/01/23 06:36:12;;;;;;;13.63;9.17;;;7.80;83.50;;;;;;5207636;28;20041;-33
2022/01/23 06:38:43;;;;;;;14.07;9.00;;;7.80;83.40;;;;;;5208898;28;20512;-29
2022/01/23 06:41:14;;;;;;;14.47;9.90;;;7.80;84.10;;;;;;5209008;28;20045;-30
2022/01/23 06:43:45;;;;;;;13.60;8.40;;;7.80;84.20;;;;;;5208611;28;20372;-31
2022/01/23 06:46:16;;;;;;;;;;;7.70;83.70;;;;;;5208525;28;20045;-29
2022/01/23 06:48:47;;;;;;;;;;;7.80;83.70;;;;;;5208239;28;19921;-29
2022/01/23 06:51:18;;;;;;;;;;;7.70;84.40;;;;;;5209142;28;20290;-30
2022/01/23 06:53:49;;;;;;;;;;;7.70;84.90;;;;;;5208877;28;19921;-30
2022/01/23 06:56:20;;;;;;;;;;;7.70;83.70;;;;;;5208403;28;19921;-30
2022/01/23 06:58:51;;;;;;;;;;;7.70;84.70;;;;;;5209821;28;19928;-31
2022/01/23 07:01:22;;;;;;;;;;;7.70;83.90;;;;;;5209462;28;19921;-32
2022/01/23 07:03:52;;;;;;;;;;;7.70;84.60;;;;;;5208154;28;19944;-32
2022/01/23 07:06:24;;;;;;;;;;;7.70;85.00;;;;;;5208048;28;19982;-33
2022/01/23 07:08:54;;;;;;;;;;;7.70;84.10;;;;;;5207885;28;19955;-32
2022/01/23 07:11:25;;;;;;;;;;;7.70;84.80;;;;;;5209446;28;20302;-30
2022/01/23 07:13:56;;;;;;;;;;;7.80;84.30;;;;;;5209511;28;19967;-31
2022/01/23 07:16:27;;;;;;;;;;;8.00;83.90;;;;;;5209216;28;20260;-31
2022/01/23 07:18:58;;;;;;;;;;;8.10;83.80;;;;;;5207530;28;19928;-29
2022/01/23 07:21:29;;;;;;;;;;;8.20;83.80;;;;;;5207585;28;19921;-29
2022/01/23 07:24:00;;;;;;;;;;;8.30;83.80;;;;;;5207371;28;20405;-31
2022/01/23 07:26:31;;;;;;;;;;;8.40;83.40;;;;;;5206068;28;19921;-31
2022/01/23 07:29:04;;;;;;;;;;;8.50;83.60;;;;;;5207392;28;19925;-30
2022/01/23 07:34:06;;;;;;;;;;;8.70;82.40;;;;;;5208055;28;19920;-30
2022/01/23 07:36:37;;;;;;;46.27;29.60;;;8.70;82.80;;;;;;5207886;28;20395;-31
2022/01/23 07:39:08;;;;;;;53.27;31.43;;;8.80;82.70;;;;;;5199188;28;20553;-32
2022/01/23 07:41:39;;;;;;;72.67;40.57;;;9.30;82.30;;;;;;5206199;28;20049;-30
2022/01/23 07:44:10;;;;;;;75.47;42.87;;;9.80;81.50;;;;;;5204369;28;20052;-33
2022/01/23 07:46:41;;;;;;;88.77;45.80;;;10.30;80.50;;;;;;5205795;28;20053;-30
2022/01/23 07:49:12;;;;;;;49.23;29.00;;;10.60;79.40;;;;;;5206027;28;20104;-30
2022/01/23 07:51:43;;;;;;;43.93;23.90;;;10.90;78.70;;;;;;5204907;28;20073;-30
2022/01/23 07:54:14;;;;;;;35.80;18.57;;;10.20;78.50;;;;;;5204526;28;20065;-30
2022/01/23 07:56:45;;;;;;;42.07;20.63;;;9.50;80.20;;;;;;5205800;28;20060;-32
2022/01/23 07:59:16;;;;;;;;;;;9.00;81.50;;;;;;5206433;28;20038;-30
2022/01/23 08:01:47;;;;;;;40.77;22.97;;;8.80;82.20;;;;;;5205300;28;19928;-32
2022/01/23 08:04:18;;;;;;;43.50;23.03;;;8.70;82.20;;;;;;5204186;28;20041;-33
2022/01/23 08:07:06;;;;;;;43.43;23.90;;;8.60;82.90;;;;;;5204396;28;20073;-34
2022/01/23 08:09:37;;;;;;;42.83;22.53;;;8.50;83.80;;;;;;5204495;28;20410;-33
2022/01/23 08:12:08;;;;;;;26.97;16.67;;;8.40;85.00;;;;;;5205759;28;20120;-32
2022/01/23 08:14:39;;;;;;;53.67;25.13;;;8.30;84.40;;;;;;5205549;28;20483;-34
2022/01/23 08:17:10;;;;;;;36.87;19.23;;;8.30;84.70;;;;;;5205372;28;20376;-32
2022/01/23 08:19:41;;;;;;;34.90;16.33;;;8.40;84.10;;;;;;5205360;28;20053;-30
2022/01/23 08:22:12;;;;;;;35.43;18.87;;;8.50;84.40;;;;;;5204562;28;20121;-31
2022/01/23 08:24:43;;;;;;;23.97;15.57;;;8.50;84.10;;;;;;5207809;28;20390;-30
2022/01/23 08:27:15;;;;;;;28.93;16.37;;;8.50;83.60;;;;;;5207534;28;20054;-29
2022/01/23 08:29:46;;;;;;;35.60;18.83;;;8.50;84.20;;;;;;5207318;28;20045;-29
2022/01/23 08:32:17;;;;;;;28.97;15.90;;;8.50;83.70;;;;;;5206992;28;20496;-28
2022/01/23 08:34:48;;;;;;;25.93;15.77;;;8.40;83.60;;;;;;5189212;28;20053;-29
2022/01/23 08:37:19;;;;;;;26.83;16.37;;;8.40;83.40;;;;;;5207615;28;20140;-29
2022/01/23 08:39:50;;;;;;;25.33;15.80;;;8.40;83.60;;;;;;5218846;28;20077;-29
2022/01/23 08:42:21;;;;;;;25.83;15.83;;;8.30;84.30;;;;;;5202715;28;20049;-32
2022/01/23 08:44:53;;;;;;;23.43;14.17;;;8.30;84.30;;;;;;5219540;28;20055;-30
2022/01/23 08:47:26;;;;;;;16.10;11.10;;;8.30;84.90;;;;;;5205089;28;20045;-31
2022/01/23 08:49:57;;;;;;;12.77;8.57;;;8.30;84.40;;;;;;5204612;28;20053;-29
2022/01/23 08:52:28;;;;;;;12.70;8.73;;;8.20;85.10;;;;;;5204723;28;20057;-30
2022/01/23 08:54:59;;;;;;;17.60;12.80;;;8.30;85.60;;;;;;5202796;28;20053;-32
2022/01/23 08:57:30;;;;;;;19.57;13.40;;;8.30;85.60;;;;;;5204922;28;20037;-30
2022/01/23 09:00:01;;;;;;;19.70;12.93;;;8.30;85.60;;;;;;5205084;28;20041;-33
2022/01/23 09:02:32;;;;;;;18.13;13.23;;;8.30;85.60;;;;;;5203541;28;20128;-31
2022/01/23 09:05:03;;;;;;;19.33;12.63;;;8.20;85.50;;;;;;5204976;28;20057;-30
2022/01/23 09:07:34;;;;;;;25.83;15.17;;;8.20;85.20;;;;;;5204603;28;20092;-31
2022/01/23 09:10:05;;;;;;;28.90;17.97;;;8.20;85.10;;;;;;5204792;28;20129;-31
2022/01/23 09:15:10;;;;;;;26.30;18.67;;;8.10;85.10;;;;;;5204813;28;20395;-31
2022/01/23 09:17:41;;;;;;;33.20;24.77;;;8.20;84.90;;;;;;5204617;28;20049;-30
2022/01/23 09:20:12;;;;;;;26.17;15.53;;;8.20;86.10;;;;;;5208782;28;20120;-31
2022/01/23 09:22:45;;;;;;;18.30;11.93;;;8.20;85.70;;;;;;5208977;28;20065;-31
2022/01/23 09:25:16;;;;;;;19.70;14.02;;;8.20;86.90;;;;;;5208633;28;20368;-30
2022/01/23 09:27:47;;;;;;;27.67;17.30;;;8.20;85.40;;;;;;5208262;28;20048;-31
2022/01/23 09:30:20;;;;;;;20.50;15.10;;;8.10;86.60;;;;;;5207982;28;20044;-30
2022/01/23 09:32:51;;;;;;;23.17;16.08;;;8.10;86.10;;;;;;5208461;28;20076;-32
2022/01/23 09:35:22;;;;;;;17.97;12.80;;;8.10;86.70;;;;;;5208475;28;20481;-32
2022/01/23 09:37:53;;;;;;;19.87;12.80;;;8.20;85.90;;;;;;5208158;28;20049;-34
2022/01/23 09:40:24;;;;;;;25.07;15.30;;;8.10;86.80;;;;;;5208460;28;20048;-32
2022/01/23 09:43:02;;;;;;;23.97;15.80;;;8.10;87.10;;;;;;5208511;28;20038;-31
2022/01/23 09:45:33;;;;;;;22.13;15.40;;;8.10;87.20;;;;;;5190978;28;20037;-32
2022/01/23 09:48:04;;;;;;;21.00;15.20;;;8.10;86.10;;;;;;5207221;28;20045;-32
2022/01/23 09:50:36;;;;;;;20.13;14.33;;;8.10;86.30;;;;;;5208051;28;20124;-31
2022/01/23 09:53:07;;;;;;;21.03;13.87;;;8.10;87.20;;;;;;5208464;28;20861;-33
2022/01/23 09:55:39;;;;;;;21.83;14.13;;;8.10;85.90;;;;;;5207885;28;20045;-31
2022/01/23 09:58:11;;;;;;;16.53;12.10;;;8.10;85.40;;;;;;5207206;28;20076;-33
2022/01/23 10:00:41;;;;;;;17.23;12.13;;;8.20;85.60;;;;;;5208077;28;20076;-32
2022/01/23 10:03:12;;;;;;;15.93;11.53;;;8.20;86.10;;;;;;5185155;28;20065;-31
2022/01/23 10:05:43;;;;;;;17.63;12.10;;;8.20;85.30;;;;;;5168647;28;20058;-31
2022/01/23 10:08:16;;;;;;;18.07;12.70;;;8.20;85.80;;;;;;5172177;28;20042;-32
2022/01/23 10:10:51;;;;;;;21.77;15.47;;;8.20;85.10;;;;;;5185106;28;20884;-31
2022/01/23 10:13:25;;;;;;;24.00;17.27;;;8.20;86.90;;;;;;5156778;28;20042;-32
2022/01/23 10:15:56;;;;;;;24.92;16.77;;;8.20;86.10;;;;;;5184557;28;20060;-31
2022/01/23 10:18:27;;;;;;;28.63;20.87;;;8.20;86.50;;;;;;5184418;28;20082;-31
2022/01/23 10:20:58;;;;;;;26.87;18.87;;;8.20;86.70;;;;;;5166508;28;20089;-33
2022/01/23 10:23:29;;;;;;;28.63;20.07;;;8.50;86.70;;;;;;5164772;28;20082;-31
2022/01/23 10:26:02;;;;;;;26.20;19.07;;;8.90;86.70;;;;;;5178922;28;20056;-29
2022/01/23 10:28:35;;;;;;;24.50;17.58;;;9.30;85.70;;;;;;5182873;28;20108;-29
2022/01/23 10:31:06;;;;;;;24.75;15.20;;;9.70;84.70;;;;;;5184001;28;20053;-31
2022/01/23 10:33:38;;;;;;;25.37;16.63;;;10.00;84.00;;;;;;5191321;28;20060;-31
2022/01/23 10:36:17;;;;;;;26.50;16.87;;;10.30;83.20;;;;;;5206743;28;20038;-30
2022/01/23 10:38:57;;;;;;;26.77;18.03;;;10.50;82.60;;;;;;5207480;28;20096;-29
2022/01/23 10:50:00;;;;;;;24.37;15.50;;;11.10;81.40;;;;;;5207092;28;20062;-30
2022/01/23 10:52:34;;;;;;;21.07;13.97;;;11.20;81.30;;;;;;5207232;28;20583;-29
2022/01/23 10:55:11;;;;;;;17.87;13.67;;;11.30;81.50;;;;;;5207308;28;20064;-29
2022/01/23 10:57:43;;;;;;;25.80;18.40;;;11.30;81.40;;;;;;5205949;28;20499;-30
2022/01/23 11:00:22;;;;;;;26.70;18.57;;;11.40;81.70;;;;;;5206729;28;20049;-31
2022/01/23 11:02:53;;;;;;;28.83;18.03;;;11.50;80.10;;;;;;5207106;28;20493;-31
2022/01/23 11:05:38;;;;;;;31.07;20.73;;;11.50;79.20;;;;;;5206843;28;20145;-29
2022/01/23 11:08:22;;;;;;;49.00;34.17;;;11.60;78.40;;;;;;5205708;28;20052;-33
2022/01/23 11:11:00;;;;;;;32.90;22.23;;;11.60;78.00;;;;;;5201718;28;20048;-32
2022/01/23 11:19:35;;;;;;;24.00;16.47;;;11.70;77.70;;;;;;5201726;28;20053;-42
2022/01/23 11:22:11;;;;;;;23.70;15.20;;;11.80;77.50;;;;;;5205070;28;20044;-34
2022/01/23 11:24:44;;;;;;;19.90;13.53;;;11.80;77.30;;;;;;5203925;28;20414;-29
2022/01/23 11:27:17;;;;;;;22.37;14.70;;;11.90;77.70;;;;;;5203466;28;20053;-32
2022/01/23 11:29:53;;;;;;;28.17;17.70;;;11.90;78.00;;;;;;5203472;28;20138;-33
2022/01/23 11:32:27;;;;;;;27.00;17.47;;;11.90;78.20;;;;;;5203968;28;20132;-28
2022/01/23 11:35:04;;;;;;;21.33;15.07;;;12.00;78.10;;;;;;5171629;28;20053;-29
2022/01/23 11:37:38;;;;;;;66.47;31.93;;;11.90;78.10;;;;;;5203533;28;20045;-29
2022/01/23 11:40:26;;;;;;;23.48;16.17;;;10.60;81.70;;;;;;5203660;28;20501;-29
2022/01/23 11:54:50;;;;;;;30.30;20.90;;;8.90;87.30;;;;;;5164709;28;20134;-31
2022/01/23 11:57:33;;;;;;;36.70;23.80;;;8.80;87.90;;;;;;5183076;28;20058;-31
2022/01/23 12:00:10;;;;;;;35.65;23.27;;;8.80;87.60;;;;;;5183180;28;20121;-34
2022/01/23 12:02:43;;;;;;;29.40;18.20;;;8.80;87.40;;;;;;5182719;28;20233;-31
2022/01/23 12:05:19;;;;;;;48.42;35.30;;;8.70;86.60;;;;;;5166980;28;20530;-30
2022/01/23 12:08:30;;;;;;;;;;;8.70;86.80;;;;;;5183398;28;20057;-30
2022/01/23 12:16:52;;;;;;;32.50;20.52;;;9.80;85.60;;;;;;5122231;29;20425;-32
2022/01/23 12:19:24;;;;;;;34.53;25.53;;;10.20;84.70;;;;;;5122138;29;20078;-33
2022/01/23 12:21:58;;;;;;;44.13;29.65;;;10.40;84.10;;;;;;5122336;29;20051;-34
2022/01/23 12:24:29;;;;;;;66.07;35.23;;;10.70;84.00;;;;;;5122276;29;20067;-33
2022/01/23 12:27:18;;;;;;;111.67;67.30;;;10.90;82.60;;;;;;5122186;29;20059;-31
2022/01/23 12:29:49;;;;;;;80.27;52.93;;;11.20;82.50;;;;;;5122047;29;20047;-31
2022/01/23 12:32:28;;;;;;;57.70;34.57;;;11.30;81.90;;;;;;5091844;29;20052;-31
2022/01/23 12:35:01;;;;;;;43.60;28.27;;;11.40;80.70;;;;;;5082662;29;20095;-32
2022/01/23 12:37:56;;;;;;;47.83;28.42;;;10.30;84.00;;;;;;5082404;29;20475;-30
2022/01/23 12:40:28;;;;;;;54.13;31.83;;;9.60;84.80;;;;;;5082572;29;20495;-31
2022/01/23 12:43:09;;;;;;;59.22;32.05;;;9.30;86.10;;;;;;5065090;29;20090;-31
2022/01/23 12:45:54;;;;;;;27.70;17.93;;;9.10;86.20;;;;;;5062249;29;20056;-31
2022/01/23 12:48:26;;;;;;;34.27;20.30;;;9.00;85.30;;;;;;5062939;29;20048;-30
2022/01/23 12:51:03;;;;;;;62.60;35.00;;;8.90;85.50;;;;;;5087862;29;20094;-30
2022/01/23 12:53:45;;;;;;;77.23;44.57;;;8.90;86.70;;;;;;5114133;29;20561;-31
2022/01/23 12:56:21;;;;;;;48.30;28.87;;;8.80;86.00;;;;;;5121862;29;20070;-33
2022/01/23 12:59:05;;;;;;;51.10;32.60;;;8.70;87.30;;;;;;5121792;29;20489;-30
2022/01/23 13:01:37;;;;;;;158.47;141.80;;;8.70;87.90;;;;;;5121851;29;20508;-30
2022/01/23 13:04:09;;;;;;;118.35;100.05;;;8.70;88.70;;;;;;5106108;29;20418;-32
2022/01/23 13:06:55;;;;;;;63.17;44.87;;;9.10;88.50;;;;;;5102498;29;20051;-32
2022/01/23 13:09:42;;;;;;;38.43;25.30;;;9.60;87.50;;;;;;5119264;29;20051;-34
2022/01/23 13:12:27;;;;;;;81.60;51.47;;;10.00;86.00;;;;;;5122013;29;20051;-33
2022/01/23 13:31:54;;;;;;;140.80;125.70;;;11.50;81.70;;;;;;5203075;28;20294;-31
2022/01/23 13:34:38;;;;;;;40.90;29.50;;;11.60;81.10;;;;;;5187086;28;20387;-31
2022/01/23 13:37:15;;;;;;;34.37;23.20;;;11.70;81.10;;;;;;5203481;28;20112;-39
2022/01/23 13:39:55;;;;;;;36.07;23.77;;;11.80;81.10;;;;;;5204507;28;20087;-33
2022/01/23 13:48:33;;;;;;;37.33;25.03;;;12.00;79.70;;;;;;5203720;28;20072;-40
2022/01/23 14:02:15;;;;;;;39.93;27.03;;;12.20;80.10;;;;;;5204407;28;20068;-31
2022/01/23 14:05:18;;;;;;;41.73;28.93;;;12.30;80.00;;;;;;5204035;28;20135;-33
2022/01/23 14:07:51;;;;;;;45.43;33.53;;;12.30;80.00;;;;;;5207232;28;20411;-30
2022/01/23 14:10:33;;;;;;;43.53;29.80;;;12.40;80.40;;;;;;5189418;28;20050;-31
2022/01/23 14:13:15;;;;;;;40.23;31.27;;;12.40;80.00;;;;;;5207811;28;20037;-31
2022/01/23 14:15:51;;;;;;;44.43;32.40;;;12.40;79.60;;;;;;5207489;28;20392;-31
2022/01/23 14:18:24;;;;;;;41.03;28.03;;;12.50;79.50;;;;;;5206572;28;20042;-30
2022/01/23 14:21:04;;;;;;;42.83;30.35;;;12.50;79.70;;;;;;5207743;28;20041;-35
2022/01/23 14:23:36;;;;;;;35.80;24.03;;;12.50;79.80;;;;;;5205934;28;20056;-30
2022/01/23 14:26:09;;;;;;;37.23;25.70;;;12.50;79.50;;;;;;5207131;28;20045;-30
2022/01/23 14:28:41;;;;;;;39.40;26.65;;;12.50;79.10;;;;;;5207133;28;20071;-30
2022/01/23 14:31:20;;;;;;;38.80;27.63;;;12.50;79.10;;;;;;5207343;28;20046;-33
2022/01/23 14:33:56;;;;;;;35.70;25.73;;;12.50;79.20;;;;;;5207366;28;20038;-30
2022/01/23 14:36:30;;;;;;;34.53;25.27;;;12.50;79.00;;;;;;5207126;28;20049;-33
2022/01/23 14:39:09;;;;;;;38.60;27.87;;;12.50;78.80;;;;;;5206160;28;20041;-30
2022/01/23 14:41:42;;;;;;;41.10;28.93;;;12.50;78.90;;;;;;5207242;28;20056;-30
2022/01/23 14:44:24;;;;;;;38.28;25.73;;;12.50;79.20;;;;;;5198997;28;20156;-35
2022/01/23 14:46:56;;;;;;;34.43;23.13;;;12.50;79.30;;;;;;5189690;28;20077;-30
2022/01/23 14:49:30;;;;;;;36.60;23.63;;;12.50;79.20;;;;;;5206967;28;20132;-31
2022/01/23 14:52:01;;;;;;;39.87;27.60;;;12.50;79.10;;;;;;5209197;28;20041;-34
2022/01/23 14:54:33;;;;;;;42.87;32.27;;;12.50;78.90;;;;;;5209871;28;20468;-31
2022/01/23 14:57:06;;;;;;;49.53;36.87;;;12.50;78.90;;;;;;5209581;28;20072;-30
2022/01/23 14:59:37;;;;;;;43.30;31.57;;;12.50;78.80;;;;;;5209353;28;20121;-30
2022/01/23 15:02:08;;;;;;;55.10;34.30;;;12.50;78.90;;;;;;5209189;28;20049;-30
2022/01/23 15:04:42;;;;;;;46.67;31.60;;;12.50;79.00;;;;;;5209349;28;20037;-29
2022/01/23 15:07:15;;;;;;;51.20;31.67;;;12.50;79.10;;;;;;5208933;28;20049;-30
2022/01/23 15:09:48;;;;;;;51.75;36.42;;;12.50;79.20;;;;;;5208959;28;20076;-31
2022/01/23 15:12:20;;;;;;;50.90;38.38;;;12.50;79.20;;;;;;5209069;28;20056;-31
2022/01/23 15:14:52;;;;;;;59.07;42.53;;;12.50;79.20;;;;;;5209107;28;20047;-29
2022/01/23 15:17:25;;;;;;;50.50;35.67;;;12.50;79.20;;;;;;5207091;28;20083;-29
2022/01/23 15:19:56;;;;;;;51.90;35.63;;;12.50;79.10;;;;;;5191994;28;20049;-29
2022/01/23 15:22:28;;;;;;;59.30;45.40;;;12.50;79.30;;;;;;5208986;28;20076;-33
2022/01/23 15:25:00;;;;;;;67.50;51.83;;;12.50;79.30;;;;;;5207750;28;20092;-30
2022/01/23 15:27:32;;;;;;;65.13;46.40;;;12.50;79.20;;;;;;5208037;28;20045;-29
2022/01/23 15:30:05;;;;;;;69.50;50.27;;;12.50;79.10;;;;;;5208958;28;20042;-36
2022/01/23 15:32:36;;;;;;;83.70;59.23;;;12.50;79.00;;;;;;5207663;28;20060;-31
2022/01/23 15:35:08;;;;;;;93.03;67.57;;;12.50;78.90;;;;;;5208687;28;20095;-32
2022/01/23 15:37:40;;;;;;;88.80;64.37;;;12.50;78.80;;;;;;5207558;28;20103;-32
2022/01/23 15:40:11;;;;;;;79.77;56.40;;;12.50;78.60;;;;;;5208694;28;20049;-30
2022/01/23 15:42:45;;;;;;;84.87;58.70;;;12.50;78.50;;;;;;5208558;28;20045;-30
2022/01/23 15:45:17;;;;;;;77.13;54.15;;;12.50;78.50;;;;;;5208468;28;20451;-29
2022/01/23 15:47:48;;;;;;;80.50;54.73;;;12.50;78.40;;;;;;5207032;28;20054;-30
2022/01/23 15:50:19;;;;;;;73.07;51.10;;;12.50;78.30;;;;;;5208386;28;20049;-30
2022/01/23 15:52:52;;;;;;;65.33;47.13;;;12.40;78.20;;;;;;5208441;28;20052;-30
2022/01/23 15:55:24;;;;;;;63.97;43.57;;;12.40;78.20;;;;;;5207853;28;20045;-30
2022/01/23 15:57:55;;;;;;;61.33;42.83;;;12.40;78.20;;;;;;5208270;28;20052;-31
2022/01/23 16:00:26;;;;;;;67.83;46.37;;;12.40;78.30;;;;;;5208185;28;20052;-29
2022/01/23 16:02:58;;;;;;;71.80;47.57;;;12.40;78.40;;;;;;5207891;28;20491;-29
2022/01/23 16:05:29;;;;;;;76.23;50.33;;;12.40;78.50;;;;;;5207936;28;20107;-29
2022/01/23 16:08:00;;;;;;;70.40;47.20;;;12.40;78.60;;;;;;5206814;28;20045;-30
2022/01/23 16:10:31;;;;;;;72.27;50.73;;;12.40;78.70;;;;;;5207781;28;20506;-33
2022/01/23 16:13:02;;;;;;;73.83;50.00;;;12.40;78.90;;;;;;5207759;28;20050;-31
2022/01/23 16:15:33;;;;;;;74.87;46.70;;;12.40;79.00;;;;;;5206741;28;20102;-32
2022/01/23 16:18:04;;;;;;;68.73;46.37;;;12.40;79.20;;;;;;5207892;28;20049;-29
2022/01/23 16:20:37;;;;;;;66.03;47.60;;;12.40;79.30;;;;;;5207742;28;20083;-30
2022/01/23 16:23:09;;;;;;;61.33;42.83;;;12.40;79.40;;;;;;5207056;28;20049;-30
2022/01/23 16:25:40;;;;;;;63.40;45.40;;;12.40;79.50;;;;;;5207273;28;20046;-30
2022/01/23 16:28:11;;;;;;;70.90;47.00;;;12.40;79.60;;;;;;5206229;28;20045;-29
2022/01/23 16:30:50;;;;;;;78.67;56.57;;;12.40;79.60;;;;;;5206998;28;21500;-28
2022/01/23 16:33:23;;;;;;;71.53;50.60;;;12.40;79.40;;;;;;5205051;28;20042;-29
2022/01/23 16:35:54;;;;;;;;;;;12.40;79.50;;;;;;5207769;28;20077;-29
2022/01/23 16:38:25;;;;;;;66.37;47.23;;;12.40;79.50;;;;;;5207505;28;20412;-30
2022/01/23 16:40:57;;;;;;;72.57;50.73;;;12.40;79.60;;;;;;5207466;28;20046;-29
2022/01/23 16:43:29;;;;;;;74.50;55.83;;;12.40;79.70;;;;;;5207289;28;20132;-32
2022/01/23 16:46:00;;;;;;;79.83;56.23;;;12.40;79.70;;;;;;5205940;28;20547;-28